sensor_id;sensor_type;location;lat;lon;timestamp;P1;durP1;ratioP1;P2;durP2;ratioP2
47299;SDS011;33036;51.320;17.234;2022-09-13T00:02:39;9.63;;;5.47;;
47299;SDS011;33036;51.320;17.234;2022-09-13T00:06:40;11.48;;;6.15;;
47299;SDS011;33036;51.320;17.234;2022-09-13T00:10:41;13.50;;;6.53;;
47299;SDS011;33036;51.320;17.234;2022-09-13T00:14:43;10.63;;;6.45;;
47299;SDS011;33036;51.320;17.234;2022-09-13T00:18:44;8.80;;;6.25;;
47299;SDS011;33036;51.320;17.234;2022-09-13T00:22:45;13.73;;;7.07;;
47299;SDS011;33036;51.320;17.234;2022-09-13T00:26:46;10.85;;;7.25;;
47299;SDS011;33036;51.320;17.234;2022-09-13T00:30:46;12.57;;;7.88;;
47299;SDS011;33036;51.320;17.234;2022-09-13T00:34:50;11.40;;;7.20;;
47299;SDS011;33036;51.320;17.234;2022-09-13T00:38:51;14.50;;;9.10;;
47299;SDS011;33036;51.320;17.234;2022-09-13T00:42:52;13.00;;;8.50;;
47299;SDS011;33036;51.320;17.234;2022-09-13T00:46:53;15.55;;;9.90;;
47299;SDS011;33036;51.320;17.234;2022-09-13T00:50:54;17.00;;;10.05;;
47299;SDS011;33036;51.320;17.234;2022-09-13T00:54:57;19.15;;;11.57;;
47299;SDS011;33036;51.320;17.234;2022-09-13T00:59:06;20.13;;;11.00;;
47299;SDS011;33036;51.320;17.234;2022-09-13T01:08:35;19.70;;;12.77;;
47299;SDS011;33036;51.320;17.234;2022-09-13T01:12:42;20.50;;;12.55;;
47299;SDS011;33036;51.320;17.234;2022-09-13T01:16:47;22.02;;;13.68;;
47299;SDS011;33036;51.320;17.234;2022-09-13T01:59:15;18.55;;;13.40;;
47299;SDS011;33036;51.320;17.234;2022-09-13T02:03:28;20.95;;;14.00;;
47299;SDS011;33036;51.320;17.234;2022-09-13T02:07:37;24.48;;;14.68;;
47299;SDS011;33036;51.320;17.234;2022-09-13T02:11:41;22.90;;;14.63;;
47299;SDS011;33036;51.320;17.234;2022-09-13T02:15:48;20.75;;;14.60;;
47299;SDS011;33036;51.320;17.234;2022-09-13T02:19:54;25.63;;;15.30;;
47299;SDS011;33036;51.320;17.234;2022-09-13T02:24:07;28.90;;;14.85;;
47299;SDS011;33036;51.320;17.234;2022-09-13T02:28:11;22.85;;;15.07;;
47299;SDS011;33036;51.320;17.234;2022-09-13T02:32:14;28.20;;;17.30;;
47299;SDS011;33036;51.320;17.234;2022-09-13T02:36:46;26.98;;;16.42;;
47299;SDS011;33036;51.320;17.234;2022-09-13T02:40:51;24.63;;;14.02;;
47299;SDS011;33036;51.320;17.234;2022-09-13T02:44:58;23.40;;;13.95;;
47299;SDS011;33036;51.320;17.234;2022-09-13T02:57:21;22.17;;;13.10;;
47299;SDS011;33036;51.320;17.234;2022-09-13T03:01:32;17.17;;;12.30;;
47299;SDS011;33036;51.320;17.234;2022-09-13T03:05:34;20.25;;;14.00;;
47299;SDS011;33036;51.320;17.234;2022-09-13T03:09:36;23.02;;;13.07;;
47299;SDS011;33036;51.320;17.234;2022-09-13T03:31:35;21.30;;;13.55;;
47299;SDS011;33036;51.320;17.234;2022-09-13T03:35:51;26.17;;;15.10;;
47299;SDS011;33036;51.320;17.234;2022-09-13T03:44:13;20.65;;;13.02;;
47299;SDS011;33036;51.320;17.234;2022-09-13T03:48:16;23.35;;;13.88;;
47299;SDS011;33036;51.320;17.234;2022-09-13T03:52:18;25.73;;;17.60;;
47299;SDS011;33036;51.320;17.234;2022-09-13T03:56:19;20.25;;;14.85;;
47299;SDS011;33036;51.320;17.234;2022-09-13T04:00:20;28.08;;;13.02;;
47299;SDS011;33036;51.320;17.234;2022-09-13T04:04:21;18.23;;;12.18;;
47299;SDS011;33036;51.320;17.234;2022-09-13T04:08:22;22.05;;;12.85;;
47299;SDS011;33036;51.320;17.234;2022-09-13T04:12:23;16.05;;;11.70;;
47299;SDS011;33036;51.320;17.234;2022-09-13T04:16:24;14.38;;;10.23;;
47299;SDS011;33036;51.320;17.234;2022-09-13T04:20:25;14.15;;;9.77;;
47299;SDS011;33036;51.320;17.234;2022-09-13T04:24:27;12.35;;;9.48;;
47299;SDS011;33036;51.320;17.234;2022-09-13T04:28:32;15.38;;;10.38;;
47299;SDS011;33036;51.320;17.234;2022-09-13T04:32:33;14.48;;;10.70;;
47299;SDS011;33036;51.320;17.234;2022-09-13T04:36:34;15.88;;;9.55;;
47299;SDS011;33036;51.320;17.234;2022-09-13T04:40:35;16.83;;;9.40;;
47299;SDS011;33036;51.320;17.234;2022-09-13T04:44:36;16.02;;;9.82;;
47299;SDS011;33036;51.320;17.234;2022-09-13T04:48:39;15.15;;;10.98;;
47299;SDS011;33036;51.320;17.234;2022-09-13T04:52:40;14.40;;;10.93;;
47299;SDS011;33036;51.320;17.234;2022-09-13T04:56:42;19.17;;;11.60;;
47299;SDS011;33036;51.320;17.234;2022-09-13T05:00:43;17.13;;;11.63;;
47299;SDS011;33036;51.320;17.234;2022-09-13T05:04:44;17.70;;;11.65;;
47299;SDS011;33036;51.320;17.234;2022-09-13T05:08:52;17.63;;;11.00;;
47299;SDS011;33036;51.320;17.234;2022-09-13T05:12:55;16.65;;;12.52;;
47299;SDS011;33036;51.320;17.234;2022-09-13T05:16:56;16.70;;;11.40;;
47299;SDS011;33036;51.320;17.234;2022-09-13T05:20:58;19.30;;;11.43;;
47299;SDS011;33036;51.320;17.234;2022-09-13T05:24:59;19.27;;;11.45;;
47299;SDS011;33036;51.320;17.234;2022-09-13T05:29:00;17.42;;;10.95;;
47299;SDS011;33036;51.320;17.234;2022-09-13T05:33:01;17.63;;;11.05;;
47299;SDS011;33036;51.320;17.234;2022-09-13T05:37:03;17.92;;;11.07;;
47299;SDS011;33036;51.320;17.234;2022-09-13T05:41:05;16.33;;;11.80;;
47299;SDS011;33036;51.320;17.234;2022-09-13T05:45:06;18.20;;;11.38;;
47299;SDS011;33036;51.320;17.234;2022-09-13T05:49:08;22.13;;;11.05;;
47299;SDS011;33036;51.320;17.234;2022-09-13T05:53:09;15.32;;;11.20;;
47299;SDS011;33036;51.320;17.234;2022-09-13T05:57:10;17.55;;;11.55;;
47299;SDS011;33036;51.320;17.234;2022-09-13T06:01:11;18.63;;;11.70;;
47299;SDS011;33036;51.320;17.234;2022-09-13T06:05:12;17.98;;;12.15;;
47299;SDS011;33036;51.320;17.234;2022-09-13T06:09:14;15.27;;;11.63;;
47299;SDS011;33036;51.320;17.234;2022-09-13T06:13:15;21.27;;;13.13;;
47299;SDS011;33036;51.320;17.234;2022-09-13T06:17:16;18.00;;;12.48;;
47299;SDS011;33036;51.320;17.234;2022-09-13T06:21:18;15.88;;;11.88;;
47299;SDS011;33036;51.320;17.234;2022-09-13T06:25:22;19.88;;;12.55;;
47299;SDS011;33036;51.320;17.234;2022-09-13T06:29:23;20.27;;;13.00;;
47299;SDS011;33036;51.320;17.234;2022-09-13T06:33:24;19.17;;;13.00;;
47299;SDS011;33036;51.320;17.234;2022-09-13T06:37:25;18.80;;;13.02;;
47299;SDS011;33036;51.320;17.234;2022-09-13T06:41:26;19.90;;;12.90;;
47299;SDS011;33036;51.320;17.234;2022-09-13T06:45:27;19.70;;;12.57;;
47299;SDS011;33036;51.320;17.234;2022-09-13T06:49:29;19.27;;;13.20;;
47299;SDS011;33036;51.320;17.234;2022-09-13T06:53:31;28.00;;;13.65;;
47299;SDS011;33036;51.320;17.234;2022-09-13T06:57:36;19.48;;;12.98;;
47299;SDS011;33036;51.320;17.234;2022-09-13T07:01:41;20.83;;;12.70;;
47299;SDS011;33036;51.320;17.234;2022-09-13T07:09:46;17.67;;;12.30;;
47299;SDS011;33036;51.320;17.234;2022-09-13T07:13:48;17.50;;;11.88;;
47299;SDS011;33036;51.320;17.234;2022-09-13T07:17:49;17.00;;;12.20;;
47299;SDS011;33036;51.320;17.234;2022-09-13T07:21:51;17.27;;;11.95;;
47299;SDS011;33036;51.320;17.234;2022-09-13T07:25:52;17.92;;;11.63;;
47299;SDS011;33036;51.320;17.234;2022-09-13T07:29:55;14.93;;;10.45;;
47299;SDS011;33036;51.320;17.234;2022-09-13T07:33:57;22.08;;;10.38;;
47299;SDS011;33036;51.320;17.234;2022-09-13T07:38:00;14.18;;;10.15;;
47299;SDS011;33036;51.320;17.234;2022-09-13T07:42:01;15.07;;;10.27;;
47299;SDS011;33036;51.320;17.234;2022-09-13T07:46:03;15.95;;;10.25;;
47299;SDS011;33036;51.320;17.234;2022-09-13T07:50:08;15.10;;;10.25;;
47299;SDS011;33036;51.320;17.234;2022-09-13T07:54:11;12.32;;;9.93;;
47299;SDS011;33036;51.320;17.234;2022-09-13T07:58:13;17.33;;;8.88;;
47299;SDS011;33036;51.320;17.234;2022-09-13T08:02:14;12.52;;;8.85;;
47299;SDS011;33036;51.320;17.234;2022-09-13T08:06:18;18.20;;;8.85;;
47299;SDS011;33036;51.320;17.234;2022-09-13T08:10:19;14.82;;;8.40;;
47299;SDS011;33036;51.320;17.234;2022-09-13T08:14:20;11.60;;;8.60;;
47299;SDS011;33036;51.320;17.234;2022-09-13T08:18:23;16.33;;;8.60;;
47299;SDS011;33036;51.320;17.234;2022-09-13T08:22:24;12.50;;;8.40;;
47299;SDS011;33036;51.320;17.234;2022-09-13T08:26:27;14.73;;;7.80;;
47299;SDS011;33036;51.320;17.234;2022-09-13T08:30:28;17.58;;;8.75;;
47299;SDS011;33036;51.320;17.234;2022-09-13T08:34:32;13.27;;;7.95;;
47299;SDS011;33036;51.320;17.234;2022-09-13T08:38:33;14.85;;;7.63;;
47299;SDS011;33036;51.320;17.234;2022-09-13T08:42:45;15.85;;;6.95;;
47299;SDS011;33036;51.320;17.234;2022-09-13T08:51:44;12.38;;;7.63;;
47299;SDS011;33036;51.320;17.234;2022-09-13T09:00:19;10.02;;;6.97;;
47299;SDS011;33036;51.320;17.234;2022-09-13T09:08:38;17.52;;;7.65;;
47299;SDS011;33036;51.320;17.234;2022-09-13T09:16:50;15.50;;;6.13;;
47299;SDS011;33036;51.320;17.234;2022-09-13T09:20:55;10.80;;;6.37;;
47299;SDS011;33036;51.320;17.234;2022-09-13T09:25:00;12.07;;;6.10;;
47299;SDS011;33036;51.320;17.234;2022-09-13T09:29:09;9.23;;;5.63;;
47299;SDS011;33036;51.320;17.234;2022-09-13T09:33:29;9.40;;;5.07;;
47299;SDS011;33036;51.320;17.234;2022-09-13T09:37:34;13.02;;;5.53;;
47299;SDS011;33036;51.320;17.234;2022-09-13T09:41:37;10.15;;;5.40;;
47299;SDS011;33036;51.320;17.234;2022-09-13T09:45:38;10.95;;;6.50;;
47299;SDS011;33036;51.320;17.234;2022-09-13T09:49:42;10.43;;;5.53;;
47299;SDS011;33036;51.320;17.234;2022-09-13T09:54:11;12.32;;;5.90;;
47299;SDS011;33036;51.320;17.234;2022-09-13T09:58:13;8.63;;;5.20;;
47299;SDS011;33036;51.320;17.234;2022-09-13T10:02:18;6.80;;;5.00;;
47299;SDS011;33036;51.320;17.234;2022-09-13T10:06:21;6.78;;;4.95;;
47299;SDS011;33036;51.320;17.234;2022-09-13T10:10:25;7.47;;;5.40;;
47299;SDS011;33036;51.320;17.234;2022-09-13T10:18:37;6.50;;;5.10;;
47299;SDS011;33036;51.320;17.234;2022-09-13T10:22:40;6.50;;;4.95;;
47299;SDS011;33036;51.320;17.234;2022-09-13T10:26:44;8.00;;;5.55;;
47299;SDS011;33036;51.320;17.234;2022-09-13T10:34:52;9.68;;;5.32;;
47299;SDS011;33036;51.320;17.234;2022-09-13T10:42:56;10.82;;;6.15;;
47299;SDS011;33036;51.320;17.234;2022-09-13T10:47:00;12.65;;;5.72;;
47299;SDS011;33036;51.320;17.234;2022-09-13T10:55:51;9.55;;;5.65;;
47299;SDS011;33036;51.320;17.234;2022-09-13T10:59:57;8.60;;;5.53;;
47299;SDS011;33036;51.320;17.234;2022-09-13T11:13:03;8.68;;;5.18;;
47299;SDS011;33036;51.320;17.234;2022-09-13T11:34:28;8.73;;;4.53;;
47299;SDS011;33036;51.320;17.234;2022-09-13T11:42:47;5.63;;;4.10;;
47299;SDS011;33036;51.320;17.234;2022-09-13T12:04:38;6.70;;;4.30;;
47299;SDS011;33036;51.320;17.234;2022-09-13T12:08:58;5.10;;;4.10;;
47299;SDS011;33036;51.320;17.234;2022-09-13T12:13:05;8.93;;;4.28;;
47299;SDS011;33036;51.320;17.234;2022-09-13T12:17:11;9.65;;;4.68;;
47299;SDS011;33036;51.320;17.234;2022-09-13T12:21:21;7.30;;;4.68;;
47299;SDS011;33036;51.320;17.234;2022-09-13T12:25:26;7.38;;;4.53;;
47299;SDS011;33036;51.320;17.234;2022-09-13T12:29:43;7.45;;;4.10;;
47299;SDS011;33036;51.320;17.234;2022-09-13T12:33:48;6.88;;;4.28;;
47299;SDS011;33036;51.320;17.234;2022-09-13T12:37:57;6.03;;;3.78;;
47299;SDS011;33036;51.320;17.234;2022-09-13T13:00:27;8.32;;;4.63;;
47299;SDS011;33036;51.320;17.234;2022-09-13T13:04:31;5.90;;;3.90;;
47299;SDS011;33036;51.320;17.234;2022-09-13T13:08:34;9.10;;;4.50;;
47299;SDS011;33036;51.320;17.234;2022-09-13T13:12:36;6.60;;;4.60;;
47299;SDS011;33036;51.320;17.234;2022-09-13T13:16:38;6.65;;;4.40;;
47299;SDS011;33036;51.320;17.234;2022-09-13T13:24:53;6.38;;;4.32;;
47299;SDS011;33036;51.320;17.234;2022-09-13T13:33:03;10.43;;;4.18;;
47299;SDS011;33036;51.320;17.234;2022-09-13T13:45:37;9.68;;;4.70;;
47299;SDS011;33036;51.320;17.234;2022-09-13T13:50:15;11.48;;;4.80;;
47299;SDS011;33036;51.320;17.234;2022-09-13T13:54:28;8.93;;;4.60;;
47299;SDS011;33036;51.320;17.234;2022-09-13T13:58:33;5.22;;;4.50;;
47299;SDS011;33036;51.320;17.234;2022-09-13T14:15:47;6.40;;;4.65;;
47299;SDS011;33036;51.320;17.234;2022-09-13T14:24:07;8.85;;;5.32;;
47299;SDS011;33036;51.320;17.234;2022-09-13T14:28:19;6.63;;;4.88;;
47299;SDS011;33036;51.320;17.234;2022-09-13T14:32:21;8.10;;;5.18;;
47299;SDS011;33036;51.320;17.234;2022-09-13T14:36:24;8.05;;;5.20;;
47299;SDS011;33036;51.320;17.234;2022-09-13T14:40:26;8.20;;;4.90;;
47299;SDS011;33036;51.320;17.234;2022-09-13T14:44:31;7.97;;;5.30;;
47299;SDS011;33036;51.320;17.234;2022-09-13T14:48:35;7.30;;;5.68;;
47299;SDS011;33036;51.320;17.234;2022-09-13T14:52:44;10.90;;;4.70;;
47299;SDS011;33036;51.320;17.234;2022-09-13T14:56:49;9.68;;;4.88;;
47299;SDS011;33036;51.320;17.234;2022-09-13T15:05:00;9.40;;;5.60;;
47299;SDS011;33036;51.320;17.234;2022-09-13T15:13:09;7.40;;;5.22;;
47299;SDS011;33036;51.320;17.234;2022-09-13T15:17:12;10.82;;;5.38;;
47299;SDS011;33036;51.320;17.234;2022-09-13T15:21:16;9.30;;;5.35;;
47299;SDS011;33036;51.320;17.234;2022-09-13T15:25:27;6.43;;;4.88;;
47299;SDS011;33036;51.320;17.234;2022-09-13T15:29:29;9.43;;;4.97;;
47299;SDS011;33036;51.320;17.234;2022-09-13T15:33:34;7.10;;;4.97;;
47299;SDS011;33036;51.320;17.234;2022-09-13T15:37:36;8.63;;;5.03;;
47299;SDS011;33036;51.320;17.234;2022-09-13T15:41:38;6.22;;;5.32;;
47299;SDS011;33036;51.320;17.234;2022-09-13T15:45:40;9.25;;;5.22;;
47299;SDS011;33036;51.320;17.234;2022-09-13T15:49:45;8.45;;;5.38;;
47299;SDS011;33036;51.320;17.234;2022-09-13T15:53:50;10.65;;;5.45;;
47299;SDS011;33036;51.320;17.234;2022-09-13T15:57:51;8.52;;;5.57;;
47299;SDS011;33036;51.320;17.234;2022-09-13T16:01:52;10.10;;;5.20;;
47299;SDS011;33036;51.320;17.234;2022-09-13T16:05:55;11.95;;;5.43;;
47299;SDS011;33036;51.320;17.234;2022-09-13T16:09:56;6.60;;;4.95;;
47299;SDS011;33036;51.320;17.234;2022-09-13T16:13:57;9.70;;;5.45;;
47299;SDS011;33036;51.320;17.234;2022-09-13T16:17:58;12.90;;;5.55;;
47299;SDS011;33036;51.320;17.234;2022-09-13T16:21:59;18.75;;;6.00;;
47299;SDS011;33036;51.320;17.234;2022-09-13T16:26:00;9.15;;;5.40;;
47299;SDS011;33036;51.320;17.234;2022-09-13T16:30:01;10.57;;;5.63;;
47299;SDS011;33036;51.320;17.234;2022-09-13T16:34:02;8.48;;;5.63;;
47299;SDS011;33036;51.320;17.234;2022-09-13T16:38:04;8.52;;;5.53;;
47299;SDS011;33036;51.320;17.234;2022-09-13T16:42:05;8.63;;;6.15;;
47299;SDS011;33036;51.320;17.234;2022-09-13T16:46:07;9.23;;;5.55;;
47299;SDS011;33036;51.320;17.234;2022-09-13T16:50:08;9.57;;;6.47;;
47299;SDS011;33036;51.320;17.234;2022-09-13T16:54:10;11.25;;;5.90;;
47299;SDS011;33036;51.320;17.234;2022-09-13T16:58:11;9.88;;;5.65;;
47299;SDS011;33036;51.320;17.234;2022-09-13T17:02:12;10.23;;;5.60;;
47299;SDS011;33036;51.320;17.234;2022-09-13T17:06:14;11.63;;;5.65;;
47299;SDS011;33036;51.320;17.234;2022-09-13T17:10:17;6.65;;;5.30;;
47299;SDS011;33036;51.320;17.234;2022-09-13T17:14:18;7.10;;;5.63;;
47299;SDS011;33036;51.320;17.234;2022-09-13T17:18:21;9.85;;;5.68;;
47299;SDS011;33036;51.320;17.234;2022-09-13T17:22:22;11.45;;;6.15;;
47299;SDS011;33036;51.320;17.234;2022-09-13T17:26:24;9.07;;;5.70;;
47299;SDS011;33036;51.320;17.234;2022-09-13T17:30:25;9.90;;;5.93;;
47299;SDS011;33036;51.320;17.234;2022-09-13T17:34:27;9.30;;;5.45;;
47299;SDS011;33036;51.320;17.234;2022-09-13T17:38:28;7.78;;;6.00;;
47299;SDS011;33036;51.320;17.234;2022-09-13T17:42:29;10.80;;;6.22;;
47299;SDS011;33036;51.320;17.234;2022-09-13T17:46:30;11.23;;;6.07;;
47299;SDS011;33036;51.320;17.234;2022-09-13T17:50:31;8.65;;;5.60;;
47299;SDS011;33036;51.320;17.234;2022-09-13T17:54:32;12.20;;;6.13;;
47299;SDS011;33036;51.320;17.234;2022-09-13T17:58:34;8.35;;;6.05;;
47299;SDS011;33036;51.320;17.234;2022-09-13T18:02:35;7.93;;;5.75;;
47299;SDS011;33036;51.320;17.234;2022-09-13T18:06:36;10.65;;;5.88;;
47299;SDS011;33036;51.320;17.234;2022-09-13T18:10:40;8.07;;;5.35;;
47299;SDS011;33036;51.320;17.234;2022-09-13T18:14:41;9.75;;;5.95;;
47299;SDS011;33036;51.320;17.234;2022-09-13T18:18:42;8.05;;;5.80;;
47299;SDS011;33036;51.320;17.234;2022-09-13T18:22:45;10.00;;;6.18;;
47299;SDS011;33036;51.320;17.234;2022-09-13T18:26:47;11.63;;;6.05;;
47299;SDS011;33036;51.320;17.234;2022-09-13T18:30:56;7.90;;;6.35;;
47299;SDS011;33036;51.320;17.234;2022-09-13T18:34:58;10.30;;;6.22;;
47299;SDS011;33036;51.320;17.234;2022-09-13T18:38:59;10.27;;;6.35;;
47299;SDS011;33036;51.320;17.234;2022-09-13T18:43:03;8.25;;;6.40;;
47299;SDS011;33036;51.320;17.234;2022-09-13T18:47:04;11.32;;;6.20;;
47299;SDS011;33036;51.320;17.234;2022-09-13T18:51:08;22.45;;;6.55;;
47299;SDS011;33036;51.320;17.234;2022-09-13T18:55:13;8.13;;;6.10;;
47299;SDS011;33036;51.320;17.234;2022-09-13T18:59:15;12.13;;;7.03;;
47299;SDS011;33036;51.320;17.234;2022-09-13T19:03:16;8.13;;;6.15;;
47299;SDS011;33036;51.320;17.234;2022-09-13T19:07:17;18.77;;;6.72;;
47299;SDS011;33036;51.320;17.234;2022-09-13T19:11:19;12.23;;;6.22;;
47299;SDS011;33036;51.320;17.234;2022-09-13T19:15:21;10.52;;;6.75;;
47299;SDS011;33036;51.320;17.234;2022-09-13T19:19:23;15.10;;;7.50;;
47299;SDS011;33036;51.320;17.234;2022-09-13T19:23:26;17.63;;;9.32;;
47299;SDS011;33036;51.320;17.234;2022-09-13T19:27:29;13.60;;;8.50;;
47299;SDS011;33036;51.320;17.234;2022-09-13T19:31:30;17.25;;;9.07;;
47299;SDS011;33036;51.320;17.234;2022-09-13T19:35:39;17.55;;;8.27;;
47299;SDS011;33036;51.320;17.234;2022-09-13T19:39:42;16.00;;;9.38;;
47299;SDS011;33036;51.320;17.234;2022-09-13T19:43:43;16.48;;;10.15;;
47299;SDS011;33036;51.320;17.234;2022-09-13T19:47:47;14.65;;;8.55;;
47299;SDS011;33036;51.320;17.234;2022-09-13T19:51:53;12.70;;;8.30;;
47299;SDS011;33036;51.320;17.234;2022-09-13T19:55:53;10.75;;;7.40;;
47299;SDS011;33036;51.320;17.234;2022-09-13T19:59:56;17.23;;;7.63;;
47299;SDS011;33036;51.320;17.234;2022-09-13T20:04:02;12.32;;;8.60;;
47299;SDS011;33036;51.320;17.234;2022-09-13T20:08:08;14.70;;;7.93;;
47299;SDS011;33036;51.320;17.234;2022-09-13T20:12:09;16.77;;;8.32;;
47299;SDS011;33036;51.320;17.234;2022-09-13T20:16:16;15.40;;;8.30;;
47299;SDS011;33036;51.320;17.234;2022-09-13T20:20:20;18.55;;;8.50;;
47299;SDS011;33036;51.320;17.234;2022-09-13T20:24:24;14.38;;;8.85;;
47299;SDS011;33036;51.320;17.234;2022-09-13T20:28:25;14.45;;;8.00;;
47299;SDS011;33036;51.320;17.234;2022-09-13T20:32:27;13.18;;;7.65;;
47299;SDS011;33036;51.320;17.234;2022-09-13T20:36:28;10.57;;;7.40;;
47299;SDS011;33036;51.320;17.234;2022-09-13T20:40:31;19.65;;;8.68;;
47299;SDS011;33036;51.320;17.234;2022-09-13T20:44:33;11.45;;;7.57;;
47299;SDS011;33036;51.320;17.234;2022-09-13T20:48:34;16.55;;;8.30;;
47299;SDS011;33036;51.320;17.234;2022-09-13T20:52:35;19.40;;;8.18;;
47299;SDS011;33036;51.320;17.234;2022-09-13T20:56:37;12.55;;;8.20;;
47299;SDS011;33036;51.320;17.234;2022-09-13T21:00:37;16.10;;;7.88;;
47299;SDS011;33036;51.320;17.234;2022-09-13T21:04:39;18.13;;;8.10;;
47299;SDS011;33036;51.320;17.234;2022-09-13T21:08:40;13.02;;;7.80;;
47299;SDS011;33036;51.320;17.234;2022-09-13T21:12:41;17.80;;;8.63;;
47299;SDS011;33036;51.320;17.234;2022-09-13T21:16:43;16.95;;;8.15;;
47299;SDS011;33036;51.320;17.234;2022-09-13T21:20:52;14.52;;;8.73;;
47299;SDS011;33036;51.320;17.234;2022-09-13T21:24:56;15.15;;;8.98;;
47299;SDS011;33036;51.320;17.234;2022-09-13T21:28:58;17.20;;;8.48;;
47299;SDS011;33036;51.320;17.234;2022-09-13T21:32:59;14.00;;;8.95;;
47299;SDS011;33036;51.320;17.234;2022-09-13T21:37:01;15.13;;;8.85;;
47299;SDS011;33036;51.320;17.234;2022-09-13T21:41:03;15.85;;;8.55;;
47299;SDS011;33036;51.320;17.234;2022-09-13T21:45:06;11.45;;;7.72;;
47299;SDS011;33036;51.320;17.234;2022-09-13T21:49:08;15.90;;;8.68;;
47299;SDS011;33036;51.320;17.234;2022-09-13T21:53:11;12.48;;;8.73;;
47299;SDS011;33036;51.320;17.234;2022-09-13T21:57:13;15.02;;;8.80;;
47299;SDS011;33036;51.320;17.234;2022-09-13T22:01:14;16.50;;;9.25;;
47299;SDS011;33036;51.320;17.234;2022-09-13T22:05:16;19.33;;;9.93;;
47299;SDS011;33036;51.320;17.234;2022-09-13T22:09:18;15.20;;;9.05;;
47299;SDS011;33036;51.320;17.234;2022-09-13T22:13:19;18.40;;;9.43;;
47299;SDS011;33036;51.320;17.234;2022-09-13T22:17:21;15.80;;;9.50;;
47299;SDS011;33036;51.320;17.234;2022-09-13T22:21:22;14.90;;;9.73;;
47299;SDS011;33036;51.320;17.234;2022-09-13T22:25:25;22.08;;;11.68;;
47299;SDS011;33036;51.320;17.234;2022-09-13T22:29:25;19.55;;;10.43;;
47299;SDS011;33036;51.320;17.234;2022-09-13T22:33:27;19.55;;;10.48;;
47299;SDS011;33036;51.320;17.234;2022-09-13T22:37:27;18.60;;;9.93;;
47299;SDS011;33036;51.320;17.234;2022-09-13T22:41:29;17.73;;;11.13;;
47299;SDS011;33036;51.320;17.234;2022-09-13T22:45:31;16.70;;;10.35;;
47299;SDS011;33036;51.320;17.234;2022-09-13T22:49:32;17.90;;;11.13;;
47299;SDS011;33036;51.320;17.234;2022-09-13T22:53:34;19.95;;;10.95;;
47299;SDS011;33036;51.320;17.234;2022-09-13T22:57:36;21.23;;;10.73;;
47299;SDS011;33036;51.320;17.234;2022-09-13T23:01:37;23.17;;;10.98;;
47299;SDS011;33036;51.320;17.234;2022-09-13T23:05:38;16.60;;;11.07;;
47299;SDS011;33036;51.320;17.234;2022-09-13T23:09:39;19.77;;;11.25;;
47299;SDS011;33036;51.320;17.234;2022-09-13T23:13:40;19.35;;;10.55;;
47299;SDS011;33036;51.320;17.234;2022-09-13T23:17:42;16.75;;;10.02;;
47299;SDS011;33036;51.320;17.234;2022-09-13T23:21:43;15.55;;;9.73;;
47299;SDS011;33036;51.320;17.234;2022-09-13T23:25:44;20.85;;;10.15;;
47299;SDS011;33036;51.320;17.234;2022-09-13T23:29:45;14.18;;;10.77;;
47299;SDS011;33036;51.320;17.234;2022-09-13T23:33:47;15.15;;;10.70;;
47299;SDS011;33036;51.320;17.234;2022-09-13T23:37:52;16.23;;;10.20;;
47299;SDS011;33036;51.320;17.234;2022-09-13T23:41:53;13.55;;;9.85;;
47299;SDS011;33036;51.320;17.234;2022-09-13T23:45:54;14.90;;;10.45;;
47299;SDS011;33036;51.320;17.234;2022-09-13T23:49:56;15.80;;;9.98;;
47299;SDS011;33036;51.320;17.234;2022-09-13T23:53:57;17.10;;;9.40;;
47299;SDS011;33036;51.320;17.234;2022-09-13T23:57:59;16.20;;;10.23;;
